createdAt,value
2024-02-24T00:00:12.407Z,2.28
2024-02-24T00:02:42.269Z,1.90
2024-02-24T00:05:09.997Z,2.33
2024-02-24T00:07:37.443Z,2.22
2024-02-24T00:10:04.944Z,1.98
2024-02-24T00:12:32.664Z,2.13
2024-02-24T00:15:00.183Z,2.03
2024-02-24T00:17:28.224Z,1.88
2024-02-24T00:19:55.685Z,2.00
2024-02-24T00:22:25.157Z,1.88
2024-02-24T00:27:20.043Z,1.80
2024-02-24T00:29:47.685Z,2.03
2024-02-24T00:32:15.198Z,2.03
2024-02-24T00:34:42.746Z,2.10
2024-02-24T00:37:10.206Z,2.17
2024-02-24T00:39:37.560Z,1.90
2024-02-24T00:42:05.148Z,1.80
2024-02-24T00:44:32.997Z,1.67
2024-02-24T00:47:00.548Z,1.63
2024-02-24T00:49:33.327Z,1.60
2024-02-24T00:52:03.697Z,1.70
2024-02-24T00:54:31.233Z,1.52
2024-02-24T00:56:58.850Z,1.80
2024-02-24T00:59:29.108Z,1.52
2024-02-24T01:01:56.562Z,1.45
2024-02-24T01:04:26.090Z,1.33
2024-02-24T01:06:53.953Z,1.63
2024-02-24T01:09:22.359Z,1.15
2024-02-24T01:11:49.973Z,1.10
2024-02-24T01:14:17.603Z,1.30
2024-02-24T01:16:47.547Z,1.10
2024-02-24T01:19:15.258Z,1.20
2024-02-24T01:21:43.320Z,1.10
2024-02-24T01:24:14.140Z,0.98
2024-02-24T01:26:41.770Z,1.40
2024-02-24T01:29:09.433Z,1.10
2024-02-24T01:31:36.972Z,1.10
2024-02-24T01:34:07.672Z,1.20
2024-02-24T01:36:35.988Z,1.40
2024-02-24T01:39:03.668Z,1.00
2024-02-24T01:41:31.201Z,1.20
2024-02-24T01:44:00.851Z,1.10
2024-02-24T01:46:28.308Z,1.08
2024-02-24T01:48:55.927Z,1.00
2024-02-24T01:51:23.398Z,0.93
2024-02-24T01:53:51.065Z,0.90
2024-02-24T01:56:19.045Z,1.00
2024-02-24T01:58:46.663Z,1.13
2024-02-24T02:01:14.253Z,1.20
2024-02-24T02:03:43.545Z,1.40
2024-02-24T02:06:11.148Z,1.25
2024-02-24T02:08:38.935Z,0.90
2024-02-24T02:11:07.992Z,1.02
2024-02-24T02:13:38.268Z,0.80
2024-02-24T02:16:06.184Z,1.02
2024-02-24T02:18:36.744Z,0.98
2024-02-24T02:21:05.425Z,1.00
2024-02-24T02:23:32.986Z,1.15
2024-02-24T02:26:00.680Z,1.20
2024-02-24T02:28:28.144Z,1.08
2024-02-24T02:30:55.624Z,1.08
2024-02-24T02:33:23.443Z,1.10
2024-02-24T02:35:51.087Z,1.10
2024-02-24T02:38:18.675Z,1.05
2024-02-24T02:40:46.202Z,1.30
2024-02-24T02:43:15.914Z,1.20
2024-02-24T02:45:43.416Z,1.20
2024-02-24T02:48:13.247Z,1.30
2024-02-24T02:50:42.178Z,3.17
2024-02-24T02:53:09.703Z,1.30
2024-02-24T02:55:39.449Z,1.30
2024-02-24T02:58:08.120Z,1.20
2024-02-24T03:00:35.909Z,1.27
2024-02-24T03:03:03.331Z,1.40
2024-02-24T03:05:30.947Z,1.30
2024-02-24T03:08:04.028Z,1.02
2024-02-24T03:10:31.683Z,1.45
2024-02-24T03:12:59.550Z,1.40
2024-02-24T03:15:26.991Z,1.50
2024-02-24T03:17:54.630Z,1.35
2024-02-24T03:20:22.377Z,1.40
2024-02-24T03:22:49.881Z,1.30
2024-02-24T03:25:17.496Z,1.27
2024-02-24T03:27:45.237Z,1.58
2024-02-24T03:30:13.144Z,1.50
2024-02-24T03:32:40.847Z,1.60
2024-02-24T03:35:09.092Z,1.70
2024-02-24T03:37:36.698Z,1.48
2024-02-24T03:40:04.323Z,1.38
2024-02-24T03:42:31.868Z,1.45
2024-02-24T03:44:59.382Z,1.70
2024-02-24T03:47:26.919Z,1.40
2024-02-24T03:49:54.378Z,1.48
2024-02-24T03:52:26.943Z,1.33
2024-02-24T03:54:54.408Z,1.40
2024-02-24T03:57:21.850Z,1.65
2024-02-24T03:59:49.551Z,1.60
2024-02-24T04:02:16.989Z,1.33
2024-02-24T04:04:44.634Z,1.50
2024-02-24T04:07:15.230Z,1.65
2024-02-24T04:09:42.727Z,1.45
2024-02-24T04:12:10.374Z,1.58
2024-02-24T04:14:40.773Z,1.70
2024-02-24T04:17:10.501Z,1.52
2024-02-24T04:19:38.041Z,1.65
2024-02-24T04:22:05.655Z,1.30
2024-02-24T04:24:33.076Z,1.55
2024-02-24T04:27:00.624Z,1.55
2024-02-24T04:29:28.320Z,1.83
2024-02-24T04:31:55.912Z,1.63
2024-02-24T04:34:23.393Z,1.80
2024-02-24T04:36:51.027Z,1.70
2024-02-24T04:39:18.636Z,1.60
2024-02-24T04:41:48.695Z,1.85
2024-02-24T04:44:16.316Z,1.63
2024-02-24T04:46:43.847Z,1.70
2024-02-24T04:49:11.486Z,1.70
2024-02-24T04:51:39.035Z,1.85
2024-02-24T04:54:06.571Z,1.60
2024-02-24T04:56:34.169Z,1.70
2024-02-24T04:59:01.830Z,1.65
2024-02-24T05:01:29.307Z,1.70
2024-02-24T05:03:59.357Z,2.00
2024-02-24T05:06:26.997Z,1.50
2024-02-24T05:08:54.582Z,1.73
2024-02-24T05:11:22.886Z,1.90
2024-02-24T05:13:50.427Z,1.70
2024-02-24T05:16:19.037Z,1.80
2024-02-24T05:18:46.718Z,1.52
2024-02-24T05:21:23.330Z,1.80
2024-02-24T05:23:51.694Z,2.00
2024-02-24T05:26:27.314Z,1.80
2024-02-24T05:28:54.827Z,1.90
2024-02-24T05:31:24.339Z,1.63
2024-02-24T05:36:19.708Z,1.92
2024-02-24T05:38:47.305Z,1.70
2024-02-24T05:41:15.010Z,1.85
2024-02-24T05:43:45.171Z,1.75
2024-02-24T05:46:22.816Z,1.95
2024-02-24T05:48:50.356Z,2.10
2024-02-24T05:51:18.272Z,2.03
2024-02-24T05:53:48.031Z,2.03
2024-02-24T05:56:16.818Z,1.92
2024-02-24T05:58:44.405Z,2.15
2024-02-24T06:01:15.444Z,1.92
2024-02-24T06:03:43.791Z,1.90
2024-02-24T06:06:12.149Z,2.40
2024-02-24T06:08:41.574Z,1.65
2024-02-24T06:11:11.606Z,2.25
2024-02-24T06:13:39.159Z,2.15
2024-02-24T06:16:06.822Z,2.08
2024-02-24T06:18:34.439Z,2.10
2024-02-24T06:21:02.095Z,2.03
2024-02-24T06:23:29.639Z,2.30
2024-02-24T06:25:57.233Z,2.05
2024-02-24T06:28:25.745Z,2.30
2024-02-24T06:30:53.281Z,2.30
2024-02-24T06:33:20.896Z,2.45
2024-02-24T06:35:48.574Z,2.30
2024-02-24T06:38:23.515Z,2.30
2024-02-24T06:40:51.058Z,2.53
2024-02-24T06:43:18.530Z,2.60
2024-02-24T06:45:46.038Z,2.70
2024-02-24T06:48:13.558Z,2.95
2024-02-24T06:50:43.971Z,2.70
2024-02-24T06:53:11.480Z,3.33
2024-02-24T06:55:39.975Z,3.03
2024-02-24T06:58:09.332Z,3.33
2024-02-24T07:00:39.708Z,3.72
2024-02-24T07:03:08.368Z,3.60
2024-02-24T07:05:36.068Z,3.35
2024-02-24T07:08:06.713Z,3.55
2024-02-24T07:10:34.120Z,3.25
2024-02-24T07:13:03.587Z,3.60
2024-02-24T07:15:31.069Z,3.50
2024-02-24T07:17:58.675Z,4.00
2024-02-24T07:20:30.315Z,3.25
2024-02-24T07:23:00.531Z,3.78
2024-02-24T07:25:43.104Z,3.83
2024-02-24T07:28:10.549Z,4.05
2024-02-24T07:30:37.974Z,3.78
2024-02-24T07:33:05.661Z,4.60
2024-02-24T07:35:33.258Z,3.85
2024-02-24T07:38:00.703Z,4.00
2024-02-24T07:40:28.274Z,3.75
2024-02-24T07:42:55.822Z,3.70
2024-02-24T07:45:32.213Z,3.75
2024-02-24T07:47:59.683Z,4.10
2024-02-24T07:50:27.314Z,3.97
2024-02-24T07:52:54.764Z,4.00
2024-02-24T07:55:22.163Z,3.95
2024-02-24T07:57:49.876Z,3.70
2024-02-24T08:00:17.542Z,3.50
2024-02-24T08:02:44.986Z,4.20
2024-02-24T08:05:12.405Z,3.83
2024-02-24T08:07:39.916Z,3.80
2024-02-24T08:10:07.515Z,3.42
2024-02-24T08:12:34.912Z,3.92
2024-02-24T08:15:02.354Z,3.53
2024-02-24T08:17:29.819Z,3.58
2024-02-24T08:19:57.162Z,3.75
2024-02-24T08:22:24.590Z,3.15
2024-02-24T08:24:51.942Z,4.13
2024-02-24T08:27:19.249Z,3.60
2024-02-24T08:29:46.634Z,3.28
2024-02-24T08:32:14.184Z,3.60
2024-02-24T08:34:41.924Z,3.63
2024-02-24T08:37:09.866Z,3.53
2024-02-24T08:39:37.220Z,3.38
2024-02-24T08:42:04.869Z,3.08
2024-02-24T08:44:32.228Z,3.50
2024-02-24T08:46:59.623Z,3.55
2024-02-24T08:49:26.997Z,3.25
2024-02-24T08:51:54.349Z,3.30
2024-02-24T08:54:22.228Z,3.50
2024-02-24T08:56:49.930Z,3.80
2024-02-24T08:59:17.480Z,3.75
2024-02-24T09:01:45.027Z,3.45
2024-02-24T09:04:13.042Z,3.65
2024-02-24T09:06:40.699Z,3.92
2024-02-24T09:09:08.438Z,3.85
2024-02-24T09:11:36.006Z,4.28
2024-02-24T09:14:03.458Z,3.63
2024-02-24T09:16:30.977Z,3.92
2024-02-24T09:18:58.554Z,3.85
2024-02-24T09:21:26.027Z,3.90
2024-02-24T09:23:53.497Z,4.10
2024-02-24T09:26:20.886Z,3.80
2024-02-24T09:28:48.201Z,3.80
2024-02-24T09:31:15.563Z,3.88
2024-02-24T09:33:43.063Z,3.70
2024-02-24T09:36:10.487Z,3.90
2024-02-24T09:38:38.893Z,4.30
2024-02-24T09:41:06.394Z,4.00
2024-02-24T09:43:34.434Z,3.55
2024-02-24T09:46:02.310Z,4.32
2024-02-24T09:48:31.036Z,3.95
2024-02-24T09:51:00.759Z,4.10
2024-02-24T09:53:28.237Z,3.88
2024-02-24T09:55:55.974Z,4.13
2024-02-24T09:58:24.748Z,4.35
2024-02-24T10:00:52.861Z,4.10
2024-02-24T10:03:23.282Z,4.82
2024-02-24T10:05:51.305Z,4.35
2024-02-24T10:08:19.115Z,4.70
2024-02-24T10:10:46.553Z,4.57
2024-02-24T10:13:18.937Z,3.92
2024-02-24T10:15:46.407Z,4.18
2024-02-24T10:18:15.832Z,4.45
2024-02-24T10:23:14.066Z,4.63
2024-02-24T10:25:42.886Z,4.70
2024-02-24T10:28:10.457Z,4.72
2024-02-24T10:30:38.289Z,5.15
2024-02-24T10:33:06.405Z,4.25
2024-02-24T10:35:33.987Z,4.57
2024-02-24T10:38:17.414Z,4.53
2024-02-24T10:40:49.408Z,4.78
2024-02-24T10:43:16.883Z,5.45
2024-02-24T10:45:44.776Z,5.03
2024-02-24T10:48:12.362Z,5.25
2024-02-24T10:50:40.778Z,5.10
2024-02-24T10:53:08.421Z,4.88
2024-02-24T10:55:39.637Z,4.75
2024-02-24T10:58:07.096Z,4.60
2024-02-24T11:00:38.084Z,4.43
2024-02-24T11:03:06.525Z,4.28
2024-02-24T11:05:36.065Z,4.45
2024-02-24T11:08:03.671Z,4.18
2024-02-24T11:10:35.326Z,4.57
2024-02-24T11:13:03.846Z,4.20
2024-02-24T11:15:31.370Z,4.03
2024-02-24T11:18:00.182Z,4.88
2024-02-24T11:20:41.036Z,4.72
2024-02-24T11:23:21.906Z,5.03
2024-02-24T11:25:49.962Z,4.57
2024-02-24T11:28:21.437Z,4.50
2024-02-24T11:30:54.158Z,4.55
2024-02-24T11:33:25.803Z,4.88
2024-02-24T11:35:55.355Z,4.53
2024-02-24T11:38:23.879Z,4.78
2024-02-24T11:40:51.415Z,4.45
2024-02-24T11:43:19.600Z,4.28
2024-02-24T11:45:48.053Z,4.28
2024-02-24T11:48:16.021Z,4.75
2024-02-24T11:50:43.704Z,4.07
2024-02-24T11:53:11.467Z,4.25
2024-02-24T11:55:38.936Z,3.78
2024-02-24T11:58:09.044Z,3.78
2024-02-24T12:00:39.470Z,3.47
2024-02-24T12:03:11.756Z,3.17
2024-02-24T12:05:39.645Z,3.20
2024-02-24T12:08:11.127Z,2.90
2024-02-24T12:10:39.921Z,3.00
2024-02-24T12:13:09.597Z,3.05
2024-02-24T12:15:42.354Z,3.28
2024-02-24T12:18:10.010Z,2.97
2024-02-24T12:20:38.129Z,2.53
2024-02-24T12:23:09.378Z,2.85
2024-02-24T12:25:36.922Z,2.85
2024-02-24T12:28:05.292Z,2.95
2024-02-24T12:30:37.098Z,2.50
2024-02-24T12:33:05.196Z,2.47
2024-02-24T12:35:32.919Z,2.40
2024-02-24T12:38:00.919Z,2.30
2024-02-24T12:40:38.070Z,2.33
2024-02-24T12:43:09.510Z,2.10
2024-02-24T12:45:37.131Z,2.20
2024-02-24T12:48:04.778Z,2.20
2024-02-24T12:50:32.481Z,2.15
2024-02-24T12:52:59.905Z,2.28
2024-02-24T12:55:27.420Z,2.08
2024-02-24T12:57:54.802Z,2.10
2024-02-24T13:00:24.058Z,2.10
2024-02-24T13:02:52.636Z,2.08
2024-02-24T13:05:20.527Z,1.80
2024-02-24T13:07:49.264Z,2.25
2024-02-24T13:10:17.870Z,2.00
2024-02-24T13:12:45.259Z,1.95
2024-02-24T13:15:12.640Z,1.98
2024-02-24T13:17:40.073Z,1.92
2024-02-24T13:20:08.891Z,2.15
2024-02-24T13:22:41.464Z,1.95
2024-02-24T13:25:09.783Z,2.00
2024-02-24T13:27:37.208Z,2.08
2024-02-24T13:30:06.036Z,2.00
2024-02-24T13:32:33.826Z,1.83
2024-02-24T13:35:01.388Z,2.00
2024-02-24T13:37:29.015Z,1.60
2024-02-24T13:39:56.626Z,1.60
2024-02-24T13:42:24.103Z,1.80
2024-02-24T13:44:51.615Z,1.80
2024-02-24T13:47:19.382Z,1.70
2024-02-24T13:49:47.109Z,2.00
2024-02-24T13:52:14.557Z,1.48
2024-02-24T13:54:41.988Z,1.67
2024-02-24T13:57:09.370Z,1.70
2024-02-24T13:59:36.829Z,1.60
2024-02-24T14:02:05.086Z,1.77
2024-02-24T14:04:32.727Z,1.77
2024-02-24T14:07:00.195Z,1.90
2024-02-24T14:09:27.694Z,1.70
2024-02-24T14:11:55.219Z,1.85
2024-02-24T14:14:22.755Z,2.00
2024-02-24T14:16:50.137Z,2.13
2024-02-24T14:19:20.955Z,2.15
2024-02-24T14:21:50.037Z,2.35
2024-02-24T14:24:17.614Z,2.10
2024-02-24T14:26:46.569Z,2.15
2024-02-24T14:29:14.072Z,2.22
2024-02-24T14:31:41.605Z,2.03
2024-02-24T14:34:10.246Z,2.30
2024-02-24T14:36:37.636Z,2.22
2024-02-24T14:39:06.682Z,2.10
2024-02-24T14:41:34.278Z,2.35
2024-02-24T14:44:01.941Z,1.95
2024-02-24T14:46:29.263Z,2.35
2024-02-24T14:48:57.014Z,2.13
2024-02-24T14:51:24.799Z,2.60
2024-02-24T14:53:52.591Z,1.75
2024-02-24T14:56:20.614Z,2.60
2024-02-24T14:58:48.096Z,2.30
2024-02-24T15:01:16.013Z,1.80
2024-02-24T15:03:45.918Z,2.10
2024-02-24T15:06:15.872Z,2.08
2024-02-24T15:08:43.667Z,1.83
2024-02-24T15:11:11.156Z,1.92
2024-02-24T15:13:38.807Z,2.22
2024-02-24T15:16:08.022Z,2.20
2024-02-24T15:18:35.817Z,2.00
2024-02-24T15:21:03.447Z,2.05
2024-02-24T15:23:30.990Z,2.30
2024-02-24T15:25:58.358Z,2.30
2024-02-24T15:28:26.027Z,2.40
2024-02-24T15:30:53.460Z,2.47
2024-02-24T15:33:20.929Z,2.38
2024-02-24T15:35:48.396Z,2.08
2024-02-24T15:38:15.958Z,2.28
2024-02-24T15:40:43.418Z,2.30
2024-02-24T15:43:10.717Z,2.30
2024-02-24T15:45:38.051Z,2.10
2024-02-24T15:48:05.580Z,1.90
2024-02-24T15:50:33.038Z,2.17
2024-02-24T15:53:00.392Z,1.80
2024-02-24T15:55:27.762Z,2.20
2024-02-24T15:57:55.157Z,2.00
2024-02-24T16:00:23.268Z,1.90
2024-02-24T16:02:50.799Z,1.92
2024-02-24T16:05:23.010Z,1.80
2024-02-24T16:07:50.649Z,2.08
2024-02-24T16:10:20.822Z,2.10
2024-02-24T16:14:20.695Z,2.15
2024-02-24T16:16:51.594Z,2.25
2024-02-24T16:19:19.527Z,2.35
2024-02-24T16:21:46.985Z,1.92
2024-02-24T16:24:14.946Z,2.20
2024-02-24T16:26:42.364Z,1.92
2024-02-24T16:29:09.740Z,2.05
2024-02-24T16:31:38.153Z,2.20
2024-02-24T16:34:06.060Z,2.35
2024-02-24T16:36:35.082Z,2.28
2024-02-24T16:39:05.506Z,2.30
2024-02-24T16:41:33.443Z,2.20
2024-02-24T16:44:00.730Z,2.20
2024-02-24T16:46:29.246Z,2.45
2024-02-24T16:48:56.690Z,2.42
2024-02-24T16:51:24.115Z,2.20
2024-02-24T16:53:51.501Z,1.90
2024-02-24T16:56:18.941Z,2.13
2024-02-24T16:58:47.443Z,2.25
2024-02-24T17:01:14.861Z,2.20
2024-02-24T17:03:42.328Z,2.65
2024-02-24T17:06:09.795Z,2.08
2024-02-24T17:08:37.172Z,2.08
2024-02-24T17:11:04.563Z,2.10
2024-02-24T17:13:32.019Z,2.03
2024-02-24T17:15:59.417Z,2.10
2024-02-24T17:18:33.599Z,2.22
2024-02-24T17:21:04.201Z,2.08
2024-02-24T17:23:31.809Z,1.98
2024-02-24T17:26:02.675Z,2.20
2024-02-24T17:28:29.948Z,2.08
2024-02-24T17:30:58.401Z,2.20
2024-02-24T17:33:25.766Z,2.25
2024-02-24T17:35:53.147Z,2.60
2024-02-24T17:38:23.450Z,2.03
2024-02-24T17:40:50.941Z,2.20
2024-02-24T17:43:18.358Z,2.17
2024-02-24T17:45:45.740Z,2.17
2024-02-24T17:48:13.409Z,2.20
2024-02-24T17:50:41.160Z,2.92
2024-02-24T17:53:08.936Z,2.40
2024-02-24T17:55:36.385Z,2.50
2024-02-24T17:58:03.961Z,2.10
2024-02-24T18:00:33.926Z,2.38
2024-02-24T18:03:01.393Z,2.72
2024-02-24T18:05:29.621Z,2.30
2024-02-24T18:07:57.340Z,2.40
2024-02-24T18:10:25.050Z,2.42
2024-02-24T18:12:53.033Z,2.25
2024-02-24T18:15:21.172Z,2.40
2024-02-24T18:17:48.741Z,2.60
2024-02-24T18:20:16.143Z,2.70
2024-02-24T18:22:45.176Z,3.00
2024-02-24T18:25:13.529Z,2.03
2024-02-24T18:27:41.032Z,2.58
2024-02-24T18:30:08.902Z,2.55
2024-02-24T18:32:36.483Z,2.30
2024-02-24T18:35:03.977Z,2.50
2024-02-24T18:37:31.369Z,2.40
2024-02-24T18:40:03.100Z,2.30
2024-02-24T18:42:31.012Z,2.22
2024-02-24T18:44:58.584Z,2.42
2024-02-24T18:47:26.484Z,2.30
2024-02-24T18:49:54.763Z,2.35
2024-02-24T19:00:22.707Z,2.80
2024-02-24T19:02:50.308Z,2.50
2024-02-24T19:06:35.914Z,2.50
2024-02-24T19:09:04.854Z,2.63
2024-02-24T19:20:23.588Z,2.83
2024-02-24T19:22:51.156Z,3.05
2024-02-24T19:25:19.090Z,2.78
2024-02-24T19:27:47.628Z,2.72
2024-02-24T19:30:15.213Z,2.92
2024-02-24T19:32:45.901Z,3.03
2024-02-24T19:35:14.263Z,3.35
2024-02-24T19:37:42.060Z,3.97
2024-02-24T19:44:46.412Z,3.25
2024-02-24T19:51:32.972Z,2.80
2024-02-24T19:54:00.436Z,3.20
2024-02-24T19:56:28.209Z,3.15
2024-02-24T19:58:56.706Z,3.28
2024-02-24T20:01:24.471Z,2.72
2024-02-24T20:03:52.126Z,3.20
2024-02-24T20:06:19.540Z,3.03
2024-02-24T20:13:23.520Z,2.70
2024-02-24T20:20:22.595Z,2.78
2024-02-24T20:26:39.537Z,2.60
2024-02-24T20:29:08.886Z,3.30
2024-02-24T20:31:36.180Z,2.90
2024-02-24T20:34:08.105Z,2.70
2024-02-24T20:41:05.924Z,2.45
2024-02-24T20:43:34.354Z,2.22
2024-02-24T20:46:04.119Z,2.55
2024-02-24T20:48:41.003Z,2.80
2024-02-24T21:39:38.373Z,2.13
2024-02-24T21:59:57.348Z,1.88
2024-02-24T22:03:37.669Z,1.70
2024-02-24T22:14:38.018Z,1.80
2024-02-24T22:17:05.368Z,1.63
2024-02-24T22:19:35.347Z,1.65
2024-02-24T22:23:20.798Z,1.80
2024-02-24T22:25:48.188Z,1.73
2024-02-24T22:28:15.926Z,1.55
2024-02-24T22:30:44.904Z,1.83
2024-02-24T22:33:36.380Z,1.73
2024-02-24T22:36:03.976Z,1.40
2024-02-24T22:38:31.879Z,1.60
2024-02-24T22:40:59.466Z,1.80
2024-02-24T22:43:27.774Z,1.90
2024-02-24T22:50:28.179Z,1.83
2024-02-24T22:52:55.770Z,1.55
2024-02-24T22:55:25.196Z,1.90
2024-02-24T22:57:54.005Z,2.03
2024-02-24T23:00:22.083Z,1.92
2024-02-24T23:02:49.669Z,1.70
2024-02-24T23:05:17.586Z,1.67
2024-02-24T23:07:44.949Z,1.80
2024-02-24T23:10:12.617Z,1.50
2024-02-24T23:12:40.362Z,2.10
2024-02-24T23:15:08.612Z,1.88
2024-02-24T23:17:36.157Z,1.75
2024-02-24T23:20:37.004Z,1.75
2024-02-24T23:23:06.597Z,1.95
2024-02-24T23:28:02.236Z,1.60
2024-02-24T23:30:29.671Z,1.98
2024-02-24T23:32:57.212Z,2.33
2024-02-24T23:35:24.599Z,2.30
2024-02-24T23:37:51.887Z,1.70
2024-02-24T23:40:19.319Z,2.33
2024-02-24T23:42:47.420Z,2.08
2024-02-24T23:45:15.170Z,7.07
2024-02-24T23:47:43.374Z,1.63
2024-02-24T23:50:10.892Z,1.70
2024-02-24T23:52:38.238Z,2.00
2024-02-24T23:55:06.859Z,1.73
2024-02-24T23:57:35.244Z,1.63
